createdAt,value
2018-05-11T00:01:18.181Z,5.15
2018-05-11T00:03:46.591Z,3.90
2018-05-11T00:06:14.220Z,4.57
2018-05-11T00:08:41.814Z,3.67
2018-05-11T00:11:09.480Z,3.97
2018-05-11T00:13:38.807Z,4.57
2018-05-11T00:16:07.200Z,4.25
2018-05-11T00:18:34.854Z,3.95
2018-05-11T00:21:02.452Z,4.10
2018-05-11T00:23:30.102Z,3.70
2018-05-11T00:25:58.432Z,4.65
2018-05-11T00:28:27.557Z,4.20
2018-05-11T00:30:55.164Z,3.65
2018-05-11T00:33:22.773Z,4.40
2018-05-11T00:35:50.355Z,4.30
2018-05-11T00:38:17.974Z,4.53
2018-05-11T00:40:46.356Z,4.78
2018-05-11T00:43:14.710Z,4.75
2018-05-11T00:45:42.328Z,3.72
2018-05-11T00:48:09.951Z,4.97
2018-05-11T00:50:37.571Z,5.28
2018-05-11T00:53:05.186Z,4.68
2018-05-11T00:55:45.450Z,4.80
2018-05-11T00:58:13.029Z,4.68
2018-05-11T01:00:40.661Z,3.55
2018-05-11T01:03:09.002Z,4.72
2018-05-11T01:05:36.643Z,3.83
2018-05-11T01:08:04.283Z,4.97
2018-05-11T01:10:34.254Z,5.82
2018-05-11T01:13:03.921Z,4.53
2018-05-11T01:15:37.370Z,5.35
2018-05-11T01:18:08.801Z,4.30
2018-05-11T01:20:38.853Z,4.72
2018-05-11T01:23:08.521Z,4.30
2018-05-11T01:25:38.422Z,5.18
2018-05-11T01:28:09.381Z,4.30
2018-05-11T01:30:36.990Z,5.35
2018-05-11T01:33:04.630Z,4.80
2018-05-11T01:35:32.197Z,4.80
2018-05-11T01:38:00.621Z,4.85
2018-05-11T01:40:28.201Z,5.30
2018-05-11T01:42:56.587Z,4.87
2018-05-11T01:45:25.064Z,4.87
2018-05-11T01:47:52.656Z,5.25
2018-05-11T01:50:23.882Z,4.60
2018-05-11T01:52:51.474Z,4.70
2018-05-11T01:55:19.120Z,4.87
2018-05-11T01:57:46.741Z,4.78
2018-05-11T02:00:14.314Z,4.55
2018-05-11T02:02:42.833Z,4.45
2018-05-11T02:05:10.417Z,3.65
2018-05-11T02:07:38.024Z,5.05
2018-05-11T02:10:05.655Z,5.05
2018-05-11T02:12:33.243Z,3.90
2018-05-11T02:15:00.830Z,3.87
2018-05-11T02:17:28.512Z,4.65
2018-05-11T02:19:56.893Z,5.25
2018-05-11T02:22:24.505Z,3.70
2018-05-11T02:24:52.138Z,4.25
2018-05-11T02:27:19.758Z,4.65
2018-05-11T02:29:48.120Z,4.40
2018-05-11T02:32:20.567Z,3.80
2018-05-11T02:34:48.155Z,3.78
2018-05-11T02:37:15.744Z,4.65
2018-05-11T02:39:48.357Z,5.22
2018-05-11T02:42:15.994Z,4.10
2018-05-11T02:44:44.362Z,4.30
2018-05-11T02:47:12.002Z,3.67
2018-05-11T02:49:39.663Z,4.55
2018-05-11T02:52:07.276Z,4.60
2018-05-11T02:54:35.670Z,4.35
2018-05-11T02:57:03.261Z,4.55
2018-05-11T02:59:31.470Z,4.20
2018-05-11T03:01:59.043Z,5.05
2018-05-11T03:04:27.478Z,4.25
2018-05-11T03:06:55.113Z,5.25
2018-05-11T03:09:22.746Z,4.43
2018-05-11T03:11:51.147Z,4.07
2018-05-11T03:14:18.730Z,5.15
2018-05-11T03:16:46.346Z,4.90
2018-05-11T03:21:41.296Z,5.68
2018-05-11T03:24:08.918Z,5.00
2018-05-11T03:26:37.281Z,5.20
2018-05-11T03:29:04.919Z,4.90
2018-05-11T03:31:32.600Z,5.15
2018-05-11T03:34:00.225Z,4.93
2018-05-11T03:36:27.841Z,4.85
2018-05-11T03:38:56.206Z,4.35
2018-05-11T03:41:24.746Z,5.15
2018-05-11T03:43:52.381Z,5.57
2018-05-11T03:46:20.832Z,5.12
2018-05-11T03:48:49.270Z,5.50
2018-05-11T03:51:16.893Z,5.05
2018-05-11T03:53:45.041Z,4.80
2018-05-11T03:56:15.857Z,5.55
2018-05-11T03:58:43.465Z,4.37
2018-05-11T04:01:22.965Z,5.53
2018-05-11T04:04:02.305Z,4.40
2018-05-11T04:06:41.839Z,4.82
2018-05-11T04:09:10.185Z,4.25
2018-05-11T04:11:38.609Z,5.10
2018-05-11T04:14:06.188Z,4.95
2018-05-11T04:16:33.818Z,5.32
2018-05-11T04:19:01.438Z,5.78
2018-05-11T04:21:29.785Z,5.93
2018-05-11T04:23:57.419Z,5.37
2018-05-11T04:26:25.053Z,5.20
2018-05-11T04:28:52.693Z,5.45
2018-05-11T04:31:20.283Z,5.82
2018-05-11T04:33:47.897Z,4.82
2018-05-11T04:36:15.534Z,4.22
2018-05-11T04:38:43.203Z,4.90
2018-05-11T04:41:10.817Z,5.00
2018-05-11T04:43:38.399Z,4.15
2018-05-11T04:46:05.990Z,4.75
2018-05-11T04:48:33.610Z,5.30
2018-05-11T04:51:02.192Z,5.80
2018-05-11T04:53:29.821Z,6.10
2018-05-11T04:55:57.445Z,5.05
2018-05-11T04:58:25.013Z,6.18
2018-05-11T05:00:52.582Z,5.07
2018-05-11T05:03:20.231Z,5.55
2018-05-11T05:05:47.820Z,5.85
2018-05-11T05:08:15.426Z,5.47
2018-05-11T05:10:43.071Z,6.10
2018-05-11T05:13:11.479Z,6.15
2018-05-11T05:15:39.054Z,6.03
2018-05-11T05:18:06.641Z,5.82
2018-05-11T05:20:35.081Z,6.72
2018-05-11T05:23:02.703Z,6.18
2018-05-11T05:25:31.129Z,5.45
2018-05-11T05:27:58.709Z,5.78
2018-05-11T05:30:27.056Z,6.45
2018-05-11T05:32:54.641Z,5.72
2018-05-11T05:35:22.276Z,6.78
2018-05-11T05:37:50.318Z,7.45
2018-05-11T05:40:18.758Z,8.00
2018-05-11T05:42:46.369Z,8.43
2018-05-11T05:45:13.955Z,8.35
2018-05-11T05:47:41.642Z,7.75
2018-05-11T05:50:09.217Z,8.23
2018-05-11T05:52:36.845Z,8.63
2018-05-11T05:55:04.468Z,7.40
2018-05-11T05:57:32.078Z,8.20
2018-05-11T05:59:59.973Z,8.45
2018-05-11T06:02:29.589Z,8.88
2018-05-11T06:04:57.638Z,7.95
2018-05-11T06:07:25.559Z,7.65
2018-05-11T06:09:53.193Z,8.00
2018-05-11T06:12:22.906Z,7.78
2018-05-11T06:14:50.530Z,7.75
2018-05-11T06:17:18.154Z,6.35
2018-05-11T06:19:46.553Z,7.40
2018-05-11T06:22:14.359Z,7.05
2018-05-11T06:24:42.070Z,7.07
2018-05-11T06:27:09.743Z,6.05
2018-05-11T06:29:38.184Z,6.35
2018-05-11T06:32:06.061Z,8.02
2018-05-11T06:34:35.340Z,6.07
2018-05-11T06:37:02.977Z,6.05
2018-05-11T06:39:31.332Z,6.18
2018-05-11T06:41:59.736Z,6.45
2018-05-11T06:44:27.842Z,7.40
2018-05-11T06:46:55.548Z,7.55
2018-05-11T06:49:26.103Z,7.35
2018-05-11T06:51:54.252Z,7.60
2018-05-11T06:54:22.654Z,7.97
2018-05-11T06:56:54.181Z,7.62
2018-05-11T06:59:22.541Z,7.78
2018-05-11T07:01:50.152Z,7.75
2018-05-11T07:04:17.907Z,7.75
2018-05-11T07:06:45.533Z,9.95
2018-05-11T07:09:13.947Z,7.90
2018-05-11T07:11:42.777Z,9.60
2018-05-11T07:14:11.551Z,9.48
2018-05-11T07:16:39.140Z,9.70
2018-05-11T07:19:06.783Z,10.65
2018-05-11T07:21:34.792Z,8.93
2018-05-11T07:24:02.660Z,8.85
2018-05-11T07:26:31.022Z,8.90
2018-05-11T07:28:59.600Z,8.90
2018-05-11T07:31:28.004Z,11.12
2018-05-11T07:33:55.736Z,9.10
2018-05-11T07:36:25.219Z,10.45
2018-05-11T07:38:52.831Z,13.00
2018-05-11T07:41:21.310Z,13.75
2018-05-11T07:43:49.680Z,13.55
2018-05-11T07:46:18.196Z,14.23
2018-05-11T07:48:45.825Z,13.20
2018-05-11T07:51:13.804Z,12.57
2018-05-11T07:53:42.270Z,13.05
2018-05-11T07:56:09.894Z,14.85
2018-05-11T07:58:38.448Z,15.45
2018-05-11T08:01:06.106Z,16.27
2018-05-11T08:03:33.942Z,15.90
2018-05-11T08:06:03.237Z,14.73
2018-05-11T08:08:31.701Z,14.18
2018-05-11T08:10:59.374Z,17.37
2018-05-11T08:13:27.006Z,15.23
2018-05-11T08:15:54.657Z,15.85
2018-05-11T08:18:23.551Z,15.80
2018-05-11T08:20:51.195Z,14.70
2018-05-11T08:23:18.866Z,16.85
2018-05-11T08:25:46.462Z,15.45
2018-05-11T08:28:14.114Z,14.80
2018-05-11T08:30:59.710Z,16.58
2018-05-11T08:33:27.373Z,17.73
2018-05-11T08:35:54.996Z,17.10
2018-05-11T08:38:22.621Z,18.58
2018-05-11T08:40:50.869Z,18.40
2018-05-11T08:43:18.514Z,17.80
2018-05-11T08:45:46.103Z,17.70
2018-05-11T08:48:13.718Z,17.75
2018-05-11T08:50:41.538Z,17.73
2018-05-11T08:53:10.073Z,16.58
2018-05-11T08:55:37.729Z,16.10
2018-05-11T08:58:05.383Z,16.40
2018-05-11T09:00:33.866Z,17.43
2018-05-11T09:03:02.432Z,18.37
2018-05-11T09:05:30.891Z,17.77
2018-05-11T09:07:58.543Z,17.10
2018-05-11T09:10:26.247Z,16.57
2018-05-11T09:12:54.634Z,17.47
2018-05-11T09:15:22.654Z,17.27
2018-05-11T09:17:50.750Z,17.20
2018-05-11T09:20:20.395Z,15.80
2018-05-11T09:22:48.491Z,17.80
2018-05-11T09:25:16.158Z,16.53
2018-05-11T09:27:43.792Z,17.80
2018-05-11T09:30:11.455Z,18.20
2018-05-11T09:32:39.851Z,16.60
2018-05-11T09:35:07.510Z,18.33
2018-05-11T09:37:35.121Z,17.27
2018-05-11T09:40:03.153Z,18.50
2018-05-11T09:42:30.903Z,18.00
2018-05-11T09:44:58.547Z,17.13
2018-05-11T09:47:27.285Z,16.30
2018-05-11T09:49:55.939Z,17.97
2018-05-11T09:52:24.854Z,15.50
2018-05-11T09:54:52.874Z,17.87
2018-05-11T09:57:20.711Z,15.17
2018-05-11T09:59:48.635Z,16.73
2018-05-11T10:02:16.266Z,15.20
2018-05-11T10:04:43.976Z,15.83
2018-05-11T10:07:12.330Z,14.23
2018-05-11T10:09:40.040Z,13.87
2018-05-11T10:12:07.680Z,16.47
2018-05-11T10:14:35.269Z,13.70
2018-05-11T10:17:02.900Z,12.70
2018-05-11T10:19:30.598Z,13.40
2018-05-11T10:21:58.300Z,12.00
2018-05-11T10:24:26.666Z,11.90
2018-05-11T10:26:54.308Z,12.87
2018-05-11T10:29:22.157Z,12.50
2018-05-11T10:31:49.794Z,11.00
2018-05-11T10:34:17.413Z,11.40
2018-05-11T10:36:45.081Z,14.60
2018-05-11T10:39:12.781Z,14.50
2018-05-11T10:41:40.390Z,13.57
2018-05-11T10:44:07.980Z,12.50
2018-05-11T10:46:36.385Z,12.67
2018-05-11T10:49:04.040Z,11.47
2018-05-11T10:51:31.645Z,11.57
2018-05-11T10:53:59.308Z,13.43
2018-05-11T10:56:26.933Z,12.63
2018-05-11T10:58:54.611Z,13.27
2018-05-11T11:01:22.235Z,10.70
2018-05-11T11:03:50.688Z,11.03
2018-05-11T11:06:18.274Z,11.77
2018-05-11T11:08:46.655Z,10.83
2018-05-11T11:11:15.103Z,12.30
2018-05-11T11:13:42.736Z,11.90
2018-05-11T11:16:10.406Z,11.57
2018-05-11T11:18:38.046Z,12.53
2018-05-11T11:21:06.084Z,11.27
2018-05-11T11:23:33.721Z,11.33
2018-05-11T11:26:01.428Z,11.37
2018-05-11T11:28:29.007Z,11.93
2018-05-11T11:30:56.726Z,11.70
2018-05-11T11:33:26.223Z,11.47
2018-05-11T11:35:53.891Z,11.10
2018-05-11T11:38:21.573Z,12.13
2018-05-11T11:40:49.274Z,10.23
2018-05-11T11:43:17.687Z,9.13
2018-05-11T11:45:45.338Z,10.53
2018-05-11T11:48:12.980Z,9.30
2018-05-11T11:50:40.621Z,7.77
2018-05-11T11:53:08.278Z,8.93
2018-05-11T11:55:35.914Z,9.57
2018-05-11T11:58:03.559Z,9.20
2018-05-11T12:00:31.189Z,9.57
2018-05-11T12:02:58.873Z,12.97
2018-05-11T12:05:27.334Z,11.13
2018-05-11T12:07:54.941Z,10.60
2018-05-11T12:10:22.572Z,11.30
2018-05-11T12:12:50.409Z,9.80
2018-05-11T12:15:18.034Z,12.10
2018-05-11T12:17:45.638Z,9.90
2018-05-11T12:20:13.279Z,12.07
2018-05-11T12:22:41.660Z,10.50
2018-05-11T12:25:09.309Z,10.37
2018-05-11T12:27:37.662Z,13.30
2018-05-11T12:30:05.309Z,12.07
2018-05-11T12:32:32.900Z,10.87
2018-05-11T12:35:00.628Z,11.13
2018-05-11T12:37:28.188Z,11.73
2018-05-11T12:39:55.843Z,10.80
2018-05-11T12:42:23.444Z,10.43
2018-05-11T12:44:51.114Z,10.77
2018-05-11T12:47:18.765Z,11.60
2018-05-11T12:49:55.184Z,11.83
2018-05-11T12:52:22.808Z,11.40
2018-05-11T12:54:50.550Z,11.80
2018-05-11T12:57:18.946Z,12.03
2018-05-11T12:59:46.592Z,10.40
2018-05-11T13:02:14.177Z,11.60
2018-05-11T13:04:41.765Z,10.47
2018-05-11T13:07:10.228Z,9.47
2018-05-11T13:09:37.875Z,12.23
2018-05-11T13:12:22.949Z,11.13
2018-05-11T13:14:52.445Z,10.57
2018-05-11T13:17:20.894Z,11.37
2018-05-11T13:19:48.547Z,11.30
2018-05-11T13:22:16.181Z,11.43
2018-05-11T13:24:44.625Z,11.00
2018-05-11T13:27:12.262Z,10.10
2018-05-11T13:29:40.636Z,9.77
2018-05-11T13:32:08.423Z,11.37
2018-05-11T13:34:36.716Z,9.80
2018-05-11T13:37:04.374Z,11.37
2018-05-11T13:39:32.180Z,9.57
2018-05-11T13:41:59.855Z,10.10
2018-05-11T13:44:27.563Z,9.10
2018-05-11T13:46:55.219Z,9.47
2018-05-11T13:49:22.881Z,10.27
2018-05-11T13:51:50.549Z,11.77
2018-05-11T13:54:18.165Z,9.43
2018-05-11T13:56:45.825Z,9.03
2018-05-11T13:59:13.477Z,11.20
2018-05-11T14:01:41.860Z,9.03
2018-05-11T14:04:10.284Z,9.30
2018-05-11T14:06:37.924Z,10.07
2018-05-11T14:09:05.553Z,10.80
2018-05-11T14:11:34.016Z,10.60
2018-05-11T14:14:01.702Z,10.97
2018-05-11T14:16:29.456Z,10.07
2018-05-11T14:18:57.911Z,10.93
2018-05-11T14:21:25.554Z,10.13
2018-05-11T14:23:53.231Z,11.27
2018-05-11T14:26:20.863Z,11.40
2018-05-11T14:28:48.543Z,10.20
2018-05-11T14:31:16.150Z,10.80
2018-05-11T14:33:44.735Z,10.60
2018-05-11T14:36:13.920Z,8.50
2018-05-11T14:38:41.579Z,8.73
2018-05-11T14:41:09.298Z,8.30
2018-05-11T14:43:36.941Z,8.63
2018-05-11T14:46:04.718Z,10.17
2018-05-11T14:48:33.085Z,11.20
2018-05-11T14:51:00.777Z,8.70
2018-05-11T14:53:28.422Z,9.97
2018-05-11T14:55:56.021Z,8.97
2018-05-11T14:58:23.618Z,10.10
2018-05-11T15:00:51.250Z,10.27
2018-05-11T15:03:18.878Z,9.33
2018-05-11T15:05:46.578Z,10.10
2018-05-11T15:08:14.226Z,12.33
2018-05-11T15:10:43.829Z,10.23
2018-05-11T15:13:11.428Z,10.93
2018-05-11T15:15:39.963Z,11.00
2018-05-11T15:18:07.549Z,10.10
2018-05-11T15:20:35.172Z,10.10
2018-05-11T15:23:02.893Z,11.47
2018-05-11T15:25:30.545Z,10.17
2018-05-11T15:27:58.133Z,10.57
2018-05-11T15:30:25.775Z,9.37
2018-05-11T15:32:53.398Z,10.67
2018-05-11T15:35:21.005Z,11.63
2018-05-11T15:37:48.649Z,11.10
2018-05-11T15:40:16.365Z,12.30
2018-05-11T15:42:43.956Z,13.70
2018-05-11T15:45:11.548Z,13.43
2018-05-11T15:47:39.200Z,15.53
2018-05-11T15:50:06.840Z,14.57
2018-05-11T15:52:34.430Z,15.10
2018-05-11T15:55:02.066Z,14.23
2018-05-11T15:57:29.689Z,13.60
2018-05-11T15:59:57.561Z,13.70
2018-05-11T16:02:25.251Z,14.60
2018-05-11T16:04:52.873Z,13.60
2018-05-11T16:07:21.291Z,13.93
2018-05-11T16:09:48.908Z,13.77
2018-05-11T16:12:16.534Z,15.20
2018-05-11T16:14:44.142Z,14.97
2018-05-11T16:17:12.535Z,13.53
2018-05-11T16:19:40.208Z,11.93
2018-05-11T16:22:07.804Z,13.67
2018-05-11T16:24:35.389Z,12.00
2018-05-11T16:27:03.278Z,12.30
2018-05-11T16:29:31.829Z,12.87
2018-05-11T16:31:59.401Z,13.73
2018-05-11T16:34:27.042Z,13.00
2018-05-11T16:36:54.790Z,12.33
2018-05-11T16:39:22.464Z,13.30
2018-05-11T16:41:50.055Z,10.83
2018-05-11T16:44:17.679Z,11.07
2018-05-11T16:46:45.265Z,12.67
2018-05-11T16:49:12.907Z,10.63
2018-05-11T16:51:40.556Z,11.20
2018-05-11T16:54:08.175Z,11.60
2018-05-11T16:56:35.803Z,11.17
2018-05-11T16:59:03.404Z,10.47
2018-05-11T17:01:31.797Z,9.67
2018-05-11T17:04:00.145Z,10.83
2018-05-11T17:06:27.770Z,10.90
2018-05-11T17:08:55.436Z,10.97
2018-05-11T17:11:23.022Z,11.20
2018-05-11T17:13:50.645Z,12.70
2018-05-11T17:16:18.258Z,11.70
2018-05-11T17:18:46.689Z,10.57
2018-05-11T17:21:14.269Z,10.97
2018-05-11T17:23:41.905Z,11.57
2018-05-11T17:26:09.530Z,11.40
2018-05-11T17:28:39.084Z,10.27
2018-05-11T17:31:06.721Z,11.97
2018-05-11T17:33:34.338Z,9.57
2018-05-11T17:36:02.521Z,10.73
2018-05-11T17:38:30.556Z,12.07
2018-05-11T17:40:58.750Z,12.63
2018-05-11T17:43:26.553Z,11.53
2018-05-11T17:45:54.966Z,10.90
2018-05-11T17:48:22.574Z,10.23
2018-05-11T17:50:53.815Z,11.43
2018-05-11T17:53:21.451Z,9.60
2018-05-11T17:55:49.055Z,11.77
2018-05-11T17:58:16.679Z,10.50
2018-05-11T18:00:45.971Z,10.50
2018-05-11T18:03:13.908Z,12.97
2018-05-11T18:05:42.195Z,13.00
2018-05-11T18:08:09.837Z,11.70
2018-05-11T18:10:38.230Z,11.37
2018-05-11T18:13:06.380Z,11.00
2018-05-11T18:15:33.965Z,10.60
2018-05-11T18:18:01.783Z,12.83
2018-05-11T18:20:29.385Z,12.30
2018-05-11T18:22:57.788Z,12.70
2018-05-11T18:25:25.412Z,10.83
2018-05-11T18:27:53.837Z,11.03
2018-05-11T18:30:21.456Z,12.53
2018-05-11T18:32:49.099Z,10.40
2018-05-11T18:35:16.695Z,10.17
2018-05-11T18:37:44.329Z,11.63
2018-05-11T18:40:11.925Z,12.10
2018-05-11T18:42:39.727Z,11.73
2018-05-11T18:45:07.921Z,12.53
2018-05-11T18:47:35.845Z,10.90
2018-05-11T18:50:03.607Z,10.20
2018-05-11T18:52:31.438Z,10.83
2018-05-11T18:54:59.151Z,11.17
2018-05-11T18:57:26.745Z,11.00
2018-05-11T18:59:54.363Z,10.70
2018-05-11T19:02:22.011Z,11.93
2018-05-11T19:04:50.254Z,12.35
2018-05-11T19:07:18.466Z,11.60
2018-05-11T19:09:47.560Z,11.60
2018-05-11T19:12:15.385Z,13.87
2018-05-11T19:14:43.675Z,14.27
2018-05-11T19:17:11.433Z,13.52
2018-05-11T19:19:39.203Z,12.75
2018-05-11T19:22:08.061Z,12.52
2018-05-11T19:24:35.868Z,12.25
2018-05-11T19:27:03.986Z,13.00
2018-05-11T19:29:32.000Z,13.35
2018-05-11T19:31:59.790Z,12.23
2018-05-11T19:34:27.706Z,12.20
2018-05-11T19:36:55.375Z,12.10
2018-05-11T19:39:24.208Z,11.93
2018-05-11T19:41:52.233Z,12.68
2018-05-11T19:44:20.291Z,13.93
2018-05-11T19:46:48.204Z,13.57
2018-05-11T19:49:15.859Z,13.27
2018-05-11T19:51:43.857Z,12.63
2018-05-11T19:54:11.911Z,12.18
2018-05-11T19:56:41.579Z,13.30
2018-05-11T19:59:09.841Z,15.07
2018-05-11T20:07:37.293Z,13.10
2018-05-11T20:10:04.998Z,11.98
2018-05-11T20:12:32.748Z,12.55
2018-05-11T20:15:00.397Z,13.77
2018-05-11T20:17:28.793Z,13.20
2018-05-11T20:19:56.459Z,15.40
2018-05-11T20:22:24.093Z,14.50
2018-05-11T20:24:52.525Z,15.75
2018-05-11T20:27:20.887Z,15.80
2018-05-11T20:29:48.471Z,17.02
2018-05-11T20:32:16.094Z,14.77
2018-05-11T20:34:45.348Z,16.02
2018-05-11T20:37:12.978Z,16.80
2018-05-11T20:39:40.586Z,16.02
2018-05-11T20:42:08.232Z,15.98
2018-05-11T20:44:35.861Z,13.85
2018-05-11T20:47:03.567Z,14.65
2018-05-11T20:49:31.186Z,15.80
2018-05-11T20:51:58.797Z,16.15
2018-05-11T20:54:26.472Z,15.80
2018-05-11T20:56:54.060Z,17.27
2018-05-11T20:59:21.652Z,15.18
2018-05-11T21:01:49.313Z,16.30
2018-05-11T21:04:16.922Z,17.08
2018-05-11T21:06:44.545Z,15.85
2018-05-11T21:09:12.160Z,17.17
2018-05-11T21:11:40.561Z,17.92
2018-05-11T21:14:08.198Z,16.70
2018-05-11T21:16:36.597Z,18.25
2018-05-11T21:19:04.198Z,16.67
2018-05-11T21:21:31.894Z,18.12
2018-05-11T21:24:00.252Z,18.15
2018-05-11T21:26:27.879Z,16.70
2018-05-11T21:28:55.527Z,17.00
2018-05-11T21:31:23.117Z,16.48
2018-05-11T21:33:50.705Z,15.35
2018-05-11T21:36:18.335Z,16.95
2018-05-11T21:38:45.975Z,16.45
2018-05-11T21:41:13.658Z,18.10
2018-05-11T21:43:41.974Z,16.50
2018-05-11T21:46:09.581Z,17.37
2018-05-11T21:48:37.167Z,17.23
2018-05-11T21:51:04.806Z,16.35
2018-05-11T21:53:32.443Z,16.58
2018-05-11T21:56:00.799Z,17.73
2018-05-11T21:58:28.459Z,17.85
2018-05-11T22:00:56.082Z,18.23
2018-05-11T22:03:23.682Z,18.15
2018-05-11T22:05:51.296Z,20.35
2018-05-11T22:08:18.919Z,17.42
2018-05-11T22:10:47.309Z,18.55
2018-05-11T22:13:15.656Z,18.80
2018-05-11T22:15:43.257Z,20.02
2018-05-11T22:18:10.908Z,20.73
2018-05-11T22:20:39.282Z,19.45
2018-05-11T22:23:06.870Z,21.92
2018-05-11T22:25:34.587Z,19.52
2018-05-11T22:28:02.261Z,18.60
2018-05-11T22:30:30.024Z,17.98
2018-05-11T22:32:57.680Z,18.80
2018-05-11T22:35:25.290Z,20.58
2018-05-11T22:37:52.931Z,19.08
2018-05-11T22:40:20.521Z,19.45
2018-05-11T22:42:48.162Z,21.50
2018-05-11T22:45:15.794Z,19.70
2018-05-11T22:47:43.430Z,20.55
2018-05-11T22:50:11.016Z,20.35
2018-05-11T22:52:38.638Z,20.10
2018-05-11T22:55:06.941Z,18.65
2018-05-11T22:57:34.565Z,20.67
2018-05-11T23:00:02.154Z,23.08
2018-05-11T23:02:29.790Z,21.20
2018-05-11T23:04:57.475Z,20.40
2018-05-11T23:07:25.057Z,19.50
2018-05-11T23:09:52.707Z,20.60
2018-05-11T23:12:20.373Z,21.48
2018-05-11T23:14:48.025Z,20.30
2018-05-11T23:17:15.616Z,23.35
2018-05-11T23:19:43.206Z,21.50
2018-05-11T23:22:10.845Z,22.08
2018-05-11T23:24:38.437Z,20.75
2018-05-11T23:27:06.068Z,19.17
2018-05-11T23:29:33.684Z,18.77
2018-05-11T23:32:01.347Z,21.80
2018-05-11T23:34:28.934Z,20.42
2018-05-11T23:36:56.549Z,20.35
2018-05-11T23:39:24.163Z,20.85
2018-05-11T23:41:51.809Z,20.55
2018-05-11T23:44:19.397Z,20.00
2018-05-11T23:46:47.013Z,21.55
2018-05-11T23:49:14.596Z,20.58
2018-05-11T23:51:42.218Z,21.60
2018-05-11T23:54:09.839Z,22.00
2018-05-11T23:56:37.499Z,20.70
2018-05-11T23:59:05.088Z,21.67
